sensor_id;sensor_type;location;lat;lon;timestamp;P1;durP1;ratioP1;P2;durP2;ratioP2
61413;SDS011;47279;52.426;10.488;2022-11-18T00:01:25;81.57;;;76.28;;
61413;SDS011;47279;52.426;10.488;2022-11-18T00:03:51;77.88;;;72.88;;
61413;SDS011;47279;52.426;10.488;2022-11-18T00:06:18;78.35;;;73.30;;
61413;SDS011;47279;52.426;10.488;2022-11-18T00:08:44;76.60;;;71.75;;
61413;SDS011;47279;52.426;10.488;2022-11-18T00:11:12;73.90;;;69.00;;
61413;SDS011;47279;52.426;10.488;2022-11-18T00:16:42;75.18;;;70.28;;
61413;SDS011;47279;52.426;10.488;2022-11-18T00:19:08;73.93;;;69.05;;
61413;SDS011;47279;52.426;10.488;2022-11-18T00:21:34;71.70;;;67.10;;
61413;SDS011;47279;52.426;10.488;2022-11-18T00:24:00;69.78;;;65.28;;
61413;SDS011;47279;52.426;10.488;2022-11-18T00:26:26;71.22;;;66.47;;
61413;SDS011;47279;52.426;10.488;2022-11-18T00:28:52;69.53;;;65.03;;
61413;SDS011;47279;52.426;10.488;2022-11-18T00:31:18;65.53;;;61.35;;
61413;SDS011;47279;52.426;10.488;2022-11-18T00:33:44;68.22;;;63.67;;
61413;SDS011;47279;52.426;10.488;2022-11-18T00:36:11;67.47;;;63.10;;
61413;SDS011;47279;52.426;10.488;2022-11-18T00:38:37;64.55;;;60.45;;
61413;SDS011;47279;52.426;10.488;2022-11-18T00:43:29;62.75;;;58.65;;
61413;SDS011;47279;52.426;10.488;2022-11-18T00:45:55;61.08;;;57.15;;
61413;SDS011;47279;52.426;10.488;2022-11-18T00:48:21;61.90;;;58.00;;
61413;SDS011;47279;52.426;10.488;2022-11-18T00:50:48;59.58;;;55.75;;
61413;SDS011;47279;52.426;10.488;2022-11-18T00:53:14;59.25;;;55.45;;
61413;SDS011;47279;52.426;10.488;2022-11-18T00:55:41;59.45;;;55.65;;
61413;SDS011;47279;52.426;10.488;2022-11-18T00:58:07;59.83;;;55.88;;
61413;SDS011;47279;52.426;10.488;2022-11-18T01:00:33;57.83;;;54.03;;
61413;SDS011;47279;52.426;10.488;2022-11-18T01:02:59;56.20;;;52.50;;
61413;SDS011;47279;52.426;10.488;2022-11-18T01:05:26;56.35;;;52.67;;
61413;SDS011;47279;52.426;10.488;2022-11-18T01:07:52;55.25;;;51.55;;
61413;SDS011;47279;52.426;10.488;2022-11-18T01:10:18;56.22;;;52.72;;
61413;SDS011;47279;52.426;10.488;2022-11-18T01:12:44;53.45;;;49.92;;
61413;SDS011;47279;52.426;10.488;2022-11-18T01:15:29;53.50;;;50.10;;
61413;SDS011;47279;52.426;10.488;2022-11-18T01:17:55;50.10;;;46.83;;
61413;SDS011;47279;52.426;10.488;2022-11-18T01:20:21;51.42;;;48.13;;
61413;SDS011;47279;52.426;10.488;2022-11-18T01:22:47;50.92;;;47.63;;
61413;SDS011;47279;52.426;10.488;2022-11-18T01:25:13;51.45;;;48.15;;
61413;SDS011;47279;52.426;10.488;2022-11-18T01:27:39;52.03;;;48.63;;
61413;SDS011;47279;52.426;10.488;2022-11-18T01:30:05;49.28;;;46.17;;
61413;SDS011;47279;52.426;10.488;2022-11-18T01:32:31;48.40;;;45.30;;
61413;SDS011;47279;52.426;10.488;2022-11-18T01:34:57;46.95;;;43.85;;
61413;SDS011;47279;52.426;10.488;2022-11-18T01:37:23;47.55;;;44.45;;
61413;SDS011;47279;52.426;10.488;2022-11-18T01:39:49;46.15;;;43.05;;
61413;SDS011;47279;52.426;10.488;2022-11-18T01:42:15;45.28;;;42.17;;
61413;SDS011;47279;52.426;10.488;2022-11-18T01:44:59;45.08;;;42.10;;
61413;SDS011;47279;52.426;10.488;2022-11-18T01:47:27;45.67;;;42.65;;
61413;SDS011;47279;52.426;10.488;2022-11-18T01:49:53;44.78;;;41.88;;
61413;SDS011;47279;52.426;10.488;2022-11-18T01:52:20;43.63;;;40.83;;
61413;SDS011;47279;52.426;10.488;2022-11-18T01:54:47;41.42;;;38.72;;
61413;SDS011;47279;52.426;10.488;2022-11-18T01:57:16;42.42;;;39.63;;
61413;SDS011;47279;52.426;10.488;2022-11-18T01:59:46;41.75;;;39.13;;
61413;SDS011;47279;52.426;10.488;2022-11-18T02:02:13;42.03;;;39.22;;
61413;SDS011;47279;52.426;10.488;2022-11-18T02:04:40;40.90;;;38.30;;
61413;SDS011;47279;52.426;10.488;2022-11-18T02:07:07;42.10;;;39.40;;
61413;SDS011;47279;52.426;10.488;2022-11-18T02:09:35;38.40;;;35.97;;
61413;SDS011;47279;52.426;10.488;2022-11-18T02:12:01;39.08;;;36.47;;
61413;SDS011;47279;52.426;10.488;2022-11-18T02:14:37;36.92;;;34.63;;
61413;SDS011;47279;52.426;10.488;2022-11-18T02:17:14;37.10;;;34.80;;
61413;SDS011;47279;52.426;10.488;2022-11-18T02:30:21;34.63;;;32.50;;
61413;SDS011;47279;52.426;10.488;2022-11-18T02:32:55;35.58;;;33.28;;
61413;SDS011;47279;52.426;10.488;2022-11-18T02:40:47;33.45;;;31.35;;
61413;SDS011;47279;52.426;10.488;2022-11-18T02:43:15;34.08;;;31.88;;
61413;SDS011;47279;52.426;10.488;2022-11-18T02:45:45;31.23;;;29.20;;
61413;SDS011;47279;52.426;10.488;2022-11-18T02:48:13;31.88;;;29.80;;
61413;SDS011;47279;52.426;10.488;2022-11-18T02:50:40;31.25;;;29.25;;
61413;SDS011;47279;52.426;10.488;2022-11-18T02:53:07;30.35;;;28.40;;
61413;SDS011;47279;52.426;10.488;2022-11-18T02:55:35;31.30;;;29.20;;
61413;SDS011;47279;52.426;10.488;2022-11-18T02:58:03;30.77;;;28.80;;
61413;SDS011;47279;52.426;10.488;2022-11-18T03:00:30;29.33;;;27.42;;
61413;SDS011;47279;52.426;10.488;2022-11-18T03:02:56;28.98;;;27.08;;
61413;SDS011;47279;52.426;10.488;2022-11-18T03:05:25;28.25;;;26.45;;
61413;SDS011;47279;52.426;10.488;2022-11-18T03:07:55;27.63;;;25.85;;
61413;SDS011;47279;52.426;10.488;2022-11-18T03:10:22;27.00;;;25.20;;
61413;SDS011;47279;52.426;10.488;2022-11-18T03:13:03;28.05;;;26.23;;
61413;SDS011;47279;52.426;10.488;2022-11-18T03:16:05;26.60;;;24.90;;
61413;SDS011;47279;52.426;10.488;2022-11-18T03:20:49;26.30;;;24.60;;
61413;SDS011;47279;52.426;10.488;2022-11-18T03:23:39;25.95;;;24.25;;
61413;SDS011;47279;52.426;10.488;2022-11-18T03:26:05;25.67;;;24.08;;
61413;SDS011;47279;52.426;10.488;2022-11-18T03:28:37;25.60;;;24.00;;
61413;SDS011;47279;52.426;10.488;2022-11-18T03:33:35;26.10;;;24.42;;
61413;SDS011;47279;52.426;10.488;2022-11-18T03:36:04;25.50;;;23.80;;
61413;SDS011;47279;52.426;10.488;2022-11-18T03:38:32;24.38;;;22.77;;
61413;SDS011;47279;52.426;10.488;2022-11-18T03:40:58;23.58;;;21.92;;
61413;SDS011;47279;52.426;10.488;2022-11-18T03:43:30;24.05;;;22.45;;
61413;SDS011;47279;52.426;10.488;2022-11-18T03:45:59;24.80;;;23.10;;
61413;SDS011;47279;52.426;10.488;2022-11-18T03:51:06;23.55;;;21.95;;
61413;SDS011;47279;52.426;10.488;2022-11-18T03:53:33;22.10;;;20.70;;
61413;SDS011;47279;52.426;10.488;2022-11-18T03:56:02;22.35;;;20.85;;
61413;SDS011;47279;52.426;10.488;2022-11-18T03:58:31;22.27;;;20.88;;
61413;SDS011;47279;52.426;10.488;2022-11-18T04:01:10;21.85;;;20.40;;
61413;SDS011;47279;52.426;10.488;2022-11-18T04:03:38;21.60;;;20.10;;
61413;SDS011;47279;52.426;10.488;2022-11-18T04:06:20;22.13;;;20.63;;
61413;SDS011;47279;52.426;10.488;2022-11-18T04:08:49;21.00;;;19.60;;
61413;SDS011;47279;52.426;10.488;2022-11-18T04:11:18;21.13;;;19.73;;
61413;SDS011;47279;52.426;10.488;2022-11-18T04:14:07;20.35;;;19.05;;
61413;SDS011;47279;52.426;10.488;2022-11-18T04:16:41;20.50;;;19.10;;
61413;SDS011;47279;52.426;10.488;2022-11-18T04:19:07;19.92;;;18.63;;
61413;SDS011;47279;52.426;10.488;2022-11-18T04:21:33;20.17;;;18.77;;
61413;SDS011;47279;52.426;10.488;2022-11-18T04:23:59;18.92;;;17.65;;
61413;SDS011;47279;52.426;10.488;2022-11-18T04:26:25;18.73;;;17.42;;
61413;SDS011;47279;52.426;10.488;2022-11-18T04:28:51;18.42;;;17.15;;
61413;SDS011;47279;52.426;10.488;2022-11-18T04:31:17;19.73;;;18.42;;
61413;SDS011;47279;52.426;10.488;2022-11-18T04:33:43;18.40;;;17.20;;
61413;SDS011;47279;52.426;10.488;2022-11-18T04:36:09;18.25;;;17.05;;
61413;SDS011;47279;52.426;10.488;2022-11-18T04:38:35;18.48;;;17.27;;
61413;SDS011;47279;52.426;10.488;2022-11-18T04:41:01;17.05;;;15.85;;
61413;SDS011;47279;52.426;10.488;2022-11-18T04:43:27;17.80;;;16.70;;
61413;SDS011;47279;52.426;10.488;2022-11-18T04:45:53;17.70;;;16.50;;
61413;SDS011;47279;52.426;10.488;2022-11-18T04:48:19;17.23;;;16.00;;
61413;SDS011;47279;52.426;10.488;2022-11-18T04:50:44;16.27;;;15.13;;
61413;SDS011;47279;52.426;10.488;2022-11-18T04:53:10;17.10;;;15.90;;
61413;SDS011;47279;52.426;10.488;2022-11-18T04:55:36;16.67;;;15.48;;
61413;SDS011;47279;52.426;10.488;2022-11-18T04:58:02;16.33;;;15.23;;
61413;SDS011;47279;52.426;10.488;2022-11-18T05:00:28;15.90;;;14.85;;
61413;SDS011;47279;52.426;10.488;2022-11-18T05:02:54;16.90;;;15.70;;
61413;SDS011;47279;52.426;10.488;2022-11-18T05:05:20;15.20;;;14.20;;
61413;SDS011;47279;52.426;10.488;2022-11-18T05:07:46;16.33;;;15.23;;
61413;SDS011;47279;52.426;10.488;2022-11-18T05:10:12;15.90;;;14.80;;
61413;SDS011;47279;52.426;10.488;2022-11-18T05:12:38;15.98;;;14.95;;
61413;SDS011;47279;52.426;10.488;2022-11-18T05:15:14;14.82;;;13.82;;
61413;SDS011;47279;52.426;10.488;2022-11-18T05:17:40;15.65;;;14.55;;
61413;SDS011;47279;52.426;10.488;2022-11-18T05:20:06;15.25;;;14.15;;
61413;SDS011;47279;52.426;10.488;2022-11-18T05:22:32;14.50;;;13.50;;
61413;SDS011;47279;52.426;10.488;2022-11-18T05:24:58;15.18;;;14.18;;
61413;SDS011;47279;52.426;10.488;2022-11-18T05:27:24;14.38;;;13.38;;
61413;SDS011;47279;52.426;10.488;2022-11-18T05:29:50;14.02;;;13.02;;
61413;SDS011;47279;52.426;10.488;2022-11-18T05:32:16;15.15;;;14.15;;
61413;SDS011;47279;52.426;10.488;2022-11-18T05:34:42;14.50;;;13.50;;
61413;SDS011;47279;52.426;10.488;2022-11-18T05:37:09;14.90;;;13.90;;
61413;SDS011;47279;52.426;10.488;2022-11-18T05:39:35;14.32;;;13.30;;
61413;SDS011;47279;52.426;10.488;2022-11-18T05:42:01;14.30;;;13.40;;
61413;SDS011;47279;52.426;10.488;2022-11-18T05:44:45;13.40;;;12.50;;
61413;SDS011;47279;52.426;10.488;2022-11-18T05:47:11;14.60;;;13.50;;
61413;SDS011;47279;52.426;10.488;2022-11-18T05:49:37;13.85;;;12.85;;
61413;SDS011;47279;52.426;10.488;2022-11-18T05:52:04;13.60;;;12.63;;
61413;SDS011;47279;52.426;10.488;2022-11-18T05:54:30;13.00;;;12.07;;
61413;SDS011;47279;52.426;10.488;2022-11-18T05:56:56;12.77;;;11.88;;
61413;SDS011;47279;52.426;10.488;2022-11-18T05:59:22;13.93;;;12.93;;
61413;SDS011;47279;52.426;10.488;2022-11-18T06:01:49;12.55;;;11.65;;
61413;SDS011;47279;52.426;10.488;2022-11-18T06:04:19;13.02;;;12.13;;
61413;SDS011;47279;52.426;10.488;2022-11-18T06:06:46;12.80;;;11.90;;
61413;SDS011;47279;52.426;10.488;2022-11-18T06:09:14;12.50;;;11.60;;
61413;SDS011;47279;52.426;10.488;2022-11-18T06:11:42;12.63;;;11.73;;
61413;SDS011;47279;52.426;10.488;2022-11-18T06:14:15;12.80;;;11.80;;
61413;SDS011;47279;52.426;10.488;2022-11-18T06:16:43;11.95;;;11.05;;
61413;SDS011;47279;52.426;10.488;2022-11-18T06:19:10;12.15;;;11.25;;
61413;SDS011;47279;52.426;10.488;2022-11-18T06:21:36;11.88;;;10.98;;
61413;SDS011;47279;52.426;10.488;2022-11-18T06:24:02;12.20;;;11.30;;
61413;SDS011;47279;52.426;10.488;2022-11-18T06:26:28;12.25;;;11.35;;
61413;SDS011;47279;52.426;10.488;2022-11-18T06:28:54;11.77;;;10.85;;
61413;SDS011;47279;52.426;10.488;2022-11-18T06:31:21;11.82;;;11.02;;
61413;SDS011;47279;52.426;10.488;2022-11-18T06:33:47;11.77;;;10.93;;
61413;SDS011;47279;52.426;10.488;2022-11-18T06:36:13;11.60;;;10.70;;
61413;SDS011;47279;52.426;10.488;2022-11-18T06:38:39;12.00;;;11.10;;
61413;SDS011;47279;52.426;10.488;2022-11-18T06:41:05;11.35;;;10.55;;
61413;SDS011;47279;52.426;10.488;2022-11-18T06:43:31;10.73;;;9.93;;
61413;SDS011;47279;52.426;10.488;2022-11-18T06:46:03;11.52;;;10.63;;
61413;SDS011;47279;52.426;10.488;2022-11-18T06:48:48;10.18;;;9.48;;
61413;SDS011;47279;52.426;10.488;2022-11-18T06:51:14;10.60;;;9.70;;
61413;SDS011;47279;52.426;10.488;2022-11-18T06:53:40;10.80;;;10.00;;
61413;SDS011;47279;52.426;10.488;2022-11-18T06:56:06;10.18;;;9.38;;
61413;SDS011;47279;52.426;10.488;2022-11-18T06:58:33;10.23;;;9.43;;
61413;SDS011;47279;52.426;10.488;2022-11-18T07:03:37;9.80;;;9.10;;
61413;SDS011;47279;52.426;10.488;2022-11-18T07:06:03;10.15;;;9.45;;
61413;SDS011;47279;52.426;10.488;2022-11-18T07:08:29;10.80;;;10.05;;
61413;SDS011;47279;52.426;10.488;2022-11-18T07:10:55;10.30;;;9.60;;
61413;SDS011;47279;52.426;10.488;2022-11-18T07:13:21;9.68;;;8.98;;
61413;SDS011;47279;52.426;10.488;2022-11-18T07:15:47;10.45;;;9.65;;
61413;SDS011;47279;52.426;10.488;2022-11-18T07:18:13;10.57;;;9.77;;
61413;SDS011;47279;52.426;10.488;2022-11-18T07:20:39;10.13;;;9.32;;
61413;SDS011;47279;52.426;10.488;2022-11-18T07:23:05;10.75;;;9.88;;
61413;SDS011;47279;52.426;10.488;2022-11-18T07:25:31;9.77;;;9.02;;
61413;SDS011;47279;52.426;10.488;2022-11-18T07:27:57;9.57;;;8.88;;
61413;SDS011;47279;52.426;10.488;2022-11-18T07:30:23;10.20;;;9.40;;
61413;SDS011;47279;52.426;10.488;2022-11-18T07:32:49;10.20;;;9.40;;
61413;SDS011;47279;52.426;10.488;2022-11-18T07:35:15;10.10;;;9.20;;
61413;SDS011;47279;52.426;10.488;2022-11-18T07:37:42;10.07;;;9.27;;
61413;SDS011;47279;52.426;10.488;2022-11-18T07:40:09;9.48;;;8.70;;
61413;SDS011;47279;52.426;10.488;2022-11-18T07:42:35;10.65;;;9.65;;
61413;SDS011;47279;52.426;10.488;2022-11-18T07:45:07;10.10;;;9.30;;
61413;SDS011;47279;52.426;10.488;2022-11-18T07:47:33;9.50;;;8.65;;
61413;SDS011;47279;52.426;10.488;2022-11-18T07:49:59;9.75;;;8.95;;
61413;SDS011;47279;52.426;10.488;2022-11-18T07:52:25;9.10;;;8.30;;
61413;SDS011;47279;52.426;10.488;2022-11-18T07:54:51;9.50;;;8.80;;
61413;SDS011;47279;52.426;10.488;2022-11-18T07:57:17;9.43;;;8.63;;
61413;SDS011;47279;52.426;10.488;2022-11-18T07:59:43;9.65;;;8.85;;
61413;SDS011;47279;52.426;10.488;2022-11-18T08:02:12;9.45;;;8.60;;
61413;SDS011;47279;52.426;10.488;2022-11-18T08:04:38;9.63;;;8.82;;
61413;SDS011;47279;52.426;10.488;2022-11-18T08:07:04;9.73;;;8.80;;
61413;SDS011;47279;52.426;10.488;2022-11-18T08:09:30;9.23;;;8.43;;
61413;SDS011;47279;52.426;10.488;2022-11-18T08:11:56;9.25;;;8.50;;
61413;SDS011;47279;52.426;10.488;2022-11-18T08:14:22;9.30;;;8.50;;
61413;SDS011;47279;52.426;10.488;2022-11-18T08:16:48;9.15;;;8.35;;
61413;SDS011;47279;52.426;10.488;2022-11-18T08:19:15;9.70;;;8.85;;
61413;SDS011;47279;52.426;10.488;2022-11-18T08:21:41;8.77;;;7.97;;
61413;SDS011;47279;52.426;10.488;2022-11-18T08:24:08;9.10;;;8.30;;
61413;SDS011;47279;52.426;10.488;2022-11-18T08:26:34;8.50;;;7.80;;
61413;SDS011;47279;52.426;10.488;2022-11-18T08:29:00;8.65;;;7.95;;
61413;SDS011;47279;52.426;10.488;2022-11-18T08:31:27;9.48;;;8.68;;
61413;SDS011;47279;52.426;10.488;2022-11-18T08:33:54;8.95;;;8.15;;
61413;SDS011;47279;52.426;10.488;2022-11-18T08:36:22;9.55;;;8.75;;
61413;SDS011;47279;52.426;10.488;2022-11-18T08:38:48;8.95;;;8.25;;
61413;SDS011;47279;52.426;10.488;2022-11-18T08:41:26;9.27;;;8.43;;
61413;SDS011;47279;52.426;10.488;2022-11-18T08:43:53;8.50;;;7.80;;
61413;SDS011;47279;52.426;10.488;2022-11-18T08:46:19;8.52;;;7.82;;
61413;SDS011;47279;52.426;10.488;2022-11-18T08:48:45;9.18;;;8.27;;
61413;SDS011;47279;52.426;10.488;2022-11-18T08:51:11;8.30;;;7.60;;
61413;SDS011;47279;52.426;10.488;2022-11-18T08:53:38;8.80;;;8.05;;
61413;SDS011;47279;52.426;10.488;2022-11-18T08:56:04;8.23;;;7.63;;
61413;SDS011;47279;52.426;10.488;2022-11-18T08:58:30;9.07;;;8.38;;
61413;SDS011;47279;52.426;10.488;2022-11-18T09:00:55;8.20;;;7.50;;
61413;SDS011;47279;52.426;10.488;2022-11-18T09:03:22;8.50;;;7.80;;
61413;SDS011;47279;52.426;10.488;2022-11-18T09:05:48;8.93;;;8.13;;
61413;SDS011;47279;52.426;10.488;2022-11-18T09:08:15;8.70;;;8.00;;
61413;SDS011;47279;52.426;10.488;2022-11-18T09:10:41;8.27;;;7.57;;
61413;SDS011;47279;52.426;10.488;2022-11-18T09:13:07;8.70;;;7.90;;
61413;SDS011;47279;52.426;10.488;2022-11-18T09:15:33;8.57;;;7.78;;
61413;SDS011;47279;52.426;10.488;2022-11-18T09:18:00;8.68;;;7.88;;
61413;SDS011;47279;52.426;10.488;2022-11-18T09:20:25;8.95;;;8.25;;
61413;SDS011;47279;52.426;10.488;2022-11-18T09:22:51;7.80;;;7.20;;
61413;SDS011;47279;52.426;10.488;2022-11-18T09:25:17;8.45;;;7.75;;
61413;SDS011;47279;52.426;10.488;2022-11-18T09:27:43;8.13;;;7.20;;
61413;SDS011;47279;52.426;10.488;2022-11-18T09:30:10;8.40;;;7.70;;
61413;SDS011;47279;52.426;10.488;2022-11-18T09:32:36;7.85;;;7.22;;
61413;SDS011;47279;52.426;10.488;2022-11-18T09:35:02;7.60;;;7.00;;
61413;SDS011;47279;52.426;10.488;2022-11-18T09:37:27;8.30;;;7.60;;
61413;SDS011;47279;52.426;10.488;2022-11-18T09:39:53;7.57;;;6.97;;
61413;SDS011;47279;52.426;10.488;2022-11-18T09:47:31;8.57;;;7.88;;
61413;SDS011;47279;52.426;10.488;2022-11-18T09:50:05;8.27;;;7.57;;
61413;SDS011;47279;52.426;10.488;2022-11-18T09:55:23;7.93;;;7.22;;
61413;SDS011;47279;52.426;10.488;2022-11-18T09:57:50;7.78;;;7.07;;
61413;SDS011;47279;52.426;10.488;2022-11-18T10:05:25;8.07;;;7.38;;
61413;SDS011;47279;52.426;10.488;2022-11-18T10:07:55;7.65;;;7.05;;
61413;SDS011;47279;52.426;10.488;2022-11-18T10:10:29;7.35;;;6.65;;
61413;SDS011;47279;52.426;10.488;2022-11-18T10:13:01;7.28;;;6.68;;
61413;SDS011;47279;52.426;10.488;2022-11-18T10:15:36;7.78;;;7.18;;
61413;SDS011;47279;52.426;10.488;2022-11-18T10:18:10;7.93;;;7.22;;
61413;SDS011;47279;52.426;10.488;2022-11-18T10:23:20;7.95;;;7.25;;
61413;SDS011;47279;52.426;10.488;2022-11-18T10:25:47;7.43;;;6.82;;
61413;SDS011;47279;52.426;10.488;2022-11-18T10:28:14;7.80;;;7.10;;
61413;SDS011;47279;52.426;10.488;2022-11-18T10:30:40;7.40;;;6.80;;
61413;SDS011;47279;52.426;10.488;2022-11-18T10:33:17;8.55;;;7.75;;
61413;SDS011;47279;52.426;10.488;2022-11-18T10:35:48;8.25;;;7.53;;
61413;SDS011;47279;52.426;10.488;2022-11-18T10:46:14;7.35;;;6.65;;
61413;SDS011;47279;52.426;10.488;2022-11-18T10:51:19;7.80;;;7.10;;
61413;SDS011;47279;52.426;10.488;2022-11-18T10:53:45;7.90;;;7.20;;
61413;SDS011;47279;52.426;10.488;2022-11-18T10:56:12;7.40;;;6.80;;
61413;SDS011;47279;52.426;10.488;2022-11-18T10:58:42;7.50;;;6.90;;
61413;SDS011;47279;52.426;10.488;2022-11-18T11:03:39;7.28;;;6.57;;
61413;SDS011;47279;52.426;10.488;2022-11-18T11:06:12;7.40;;;6.75;;
61413;SDS011;47279;52.426;10.488;2022-11-18T11:08:45;7.70;;;7.00;;
61413;SDS011;47279;52.426;10.488;2022-11-18T11:11:17;7.00;;;6.40;;
61413;SDS011;47279;52.426;10.488;2022-11-18T11:13:49;7.68;;;6.97;;
61413;SDS011;47279;52.426;10.488;2022-11-18T11:16:16;7.30;;;6.70;;
61413;SDS011;47279;52.426;10.488;2022-11-18T11:18:43;7.38;;;6.78;;
61413;SDS011;47279;52.426;10.488;2022-11-18T11:21:19;7.17;;;6.57;;
61413;SDS011;47279;52.426;10.488;2022-11-18T11:23:49;7.80;;;7.10;;
61413;SDS011;47279;52.426;10.488;2022-11-18T11:26:25;7.07;;;6.47;;
61413;SDS011;47279;52.426;10.488;2022-11-18T11:29:04;7.55;;;6.85;;
61413;SDS011;47279;52.426;10.488;2022-11-18T11:31:44;7.28;;;6.68;;
61413;SDS011;47279;52.426;10.488;2022-11-18T11:42:31;6.90;;;6.20;;
61413;SDS011;47279;52.426;10.488;2022-11-18T11:55:27;7.20;;;6.60;;
61413;SDS011;47279;52.426;10.488;2022-11-18T11:58:02;7.28;;;6.55;;
61413;SDS011;47279;52.426;10.488;2022-11-18T12:00:29;6.90;;;6.30;;
61413;SDS011;47279;52.426;10.488;2022-11-18T12:03:06;7.50;;;6.90;;
61413;SDS011;47279;52.426;10.488;2022-11-18T12:05:39;7.20;;;6.60;;
61413;SDS011;47279;52.426;10.488;2022-11-18T12:15:49;6.50;;;5.93;;
61413;SDS011;47279;52.426;10.488;2022-11-18T12:20:52;6.72;;;6.13;;
61413;SDS011;47279;52.426;10.488;2022-11-18T12:23:22;6.53;;;6.03;;
61413;SDS011;47279;52.426;10.488;2022-11-18T12:25:51;6.97;;;6.35;;
61413;SDS011;47279;52.426;10.488;2022-11-18T12:28:21;6.68;;;6.07;;
61413;SDS011;47279;52.426;10.488;2022-11-18T12:30:48;6.97;;;6.38;;
61413;SDS011;47279;52.426;10.488;2022-11-18T12:33:14;6.60;;;6.00;;
61413;SDS011;47279;52.426;10.488;2022-11-18T12:35:45;6.57;;;6.03;;
61413;SDS011;47279;52.426;10.488;2022-11-18T12:38:26;7.53;;;6.82;;
61413;SDS011;47279;52.426;10.488;2022-11-18T12:40:52;6.95;;;6.25;;
61413;SDS011;47279;52.426;10.488;2022-11-18T12:46:09;7.03;;;6.47;;
61413;SDS011;47279;52.426;10.488;2022-11-18T12:49:00;7.00;;;6.40;;
61413;SDS011;47279;52.426;10.488;2022-11-18T12:51:43;7.22;;;6.53;;
61413;SDS011;47279;52.426;10.488;2022-11-18T12:54:52;6.82;;;6.22;;
61413;SDS011;47279;52.426;10.488;2022-11-18T12:57:00;6.70;;;6.15;;
61413;SDS011;47279;52.426;10.488;2022-11-18T12:59:27;6.88;;;6.28;;
61413;SDS011;47279;52.426;10.488;2022-11-18T13:04:35;11.30;;;7.03;;
61413;SDS011;47279;52.426;10.488;2022-11-18T13:07:02;9.55;;;6.85;;
61413;SDS011;47279;52.426;10.488;2022-11-18T13:09:29;10.48;;;7.13;;
61413;SDS011;47279;52.426;10.488;2022-11-18T13:14:29;11.68;;;7.45;;
61413;SDS011;47279;52.426;10.488;2022-11-18T13:17:22;9.77;;;7.47;;
61413;SDS011;47279;52.426;10.488;2022-11-18T13:22:59;10.07;;;6.85;;
61413;SDS011;47279;52.426;10.488;2022-11-18T13:25:44;9.90;;;7.10;;
61413;SDS011;47279;52.426;10.488;2022-11-18T13:28:15;11.48;;;7.43;;
61413;SDS011;47279;52.426;10.488;2022-11-18T13:30:46;9.75;;;7.47;;
61413;SDS011;47279;52.426;10.488;2022-11-18T13:33:14;10.63;;;7.25;;
61413;SDS011;47279;52.426;10.488;2022-11-18T13:35:40;8.10;;;7.28;;
61413;SDS011;47279;52.426;10.488;2022-11-18T13:38:21;8.20;;;7.18;;
61413;SDS011;47279;52.426;10.488;2022-11-18T13:40:48;9.38;;;7.60;;
61413;SDS011;47279;52.426;10.488;2022-11-18T13:43:35;10.70;;;6.88;;
61413;SDS011;47279;52.426;10.488;2022-11-18T13:46:22;8.43;;;6.93;;
61413;SDS011;47279;52.426;10.488;2022-11-18T13:48:52;8.35;;;7.22;;
61413;SDS011;47279;52.426;10.488;2022-11-18T13:51:20;9.50;;;6.55;;
61413;SDS011;47279;52.426;10.488;2022-11-18T13:53:46;9.02;;;7.47;;
61413;SDS011;47279;52.426;10.488;2022-11-18T13:58:42;9.63;;;7.40;;
61413;SDS011;47279;52.426;10.488;2022-11-18T14:01:16;8.65;;;7.20;;
61413;SDS011;47279;52.426;10.488;2022-11-18T14:06:23;8.75;;;7.20;;
61413;SDS011;47279;52.426;10.488;2022-11-18T14:08:49;8.63;;;7.68;;
61413;SDS011;47279;52.426;10.488;2022-11-18T14:11:32;8.15;;;6.88;;
61413;SDS011;47279;52.426;10.488;2022-11-18T14:13:59;7.90;;;6.90;;
61413;SDS011;47279;52.426;10.488;2022-11-18T14:16:46;7.68;;;6.88;;
61413;SDS011;47279;52.426;10.488;2022-11-18T14:21:50;7.70;;;6.90;;
61413;SDS011;47279;52.426;10.488;2022-11-18T14:24:16;8.23;;;6.82;;
61413;SDS011;47279;52.426;10.488;2022-11-18T14:26:50;7.82;;;7.07;;
61413;SDS011;47279;52.426;10.488;2022-11-18T14:29:17;8.30;;;6.93;;
61413;SDS011;47279;52.426;10.488;2022-11-18T14:34:28;9.95;;;7.15;;
61413;SDS011;47279;52.426;10.488;2022-11-18T14:36:55;8.40;;;7.13;;
61413;SDS011;47279;52.426;10.488;2022-11-18T14:39:22;8.52;;;6.68;;
61413;SDS011;47279;52.426;10.488;2022-11-18T14:41:49;8.93;;;7.00;;
61413;SDS011;47279;52.426;10.488;2022-11-18T14:44:16;8.00;;;6.95;;
61413;SDS011;47279;52.426;10.488;2022-11-18T14:46:43;8.23;;;6.47;;
61413;SDS011;47279;52.426;10.488;2022-11-18T14:49:11;8.40;;;6.47;;
61413;SDS011;47279;52.426;10.488;2022-11-18T14:51:38;7.35;;;6.20;;
61413;SDS011;47279;52.426;10.488;2022-11-18T14:54:04;7.47;;;6.75;;
61413;SDS011;47279;52.426;10.488;2022-11-18T14:56:30;9.40;;;6.93;;
61413;SDS011;47279;52.426;10.488;2022-11-18T14:58:57;7.55;;;6.82;;
61413;SDS011;47279;52.426;10.488;2022-11-18T15:01:23;7.47;;;6.75;;
61413;SDS011;47279;52.426;10.488;2022-11-18T15:03:51;7.88;;;7.07;;
61413;SDS011;47279;52.426;10.488;2022-11-18T15:06:17;6.32;;;5.65;;
61413;SDS011;47279;52.426;10.488;2022-11-18T15:08:44;8.30;;;6.45;;
61413;SDS011;47279;52.426;10.488;2022-11-18T15:11:11;9.25;;;7.00;;
61413;SDS011;47279;52.426;10.488;2022-11-18T15:13:37;9.05;;;7.13;;
61413;SDS011;47279;52.426;10.488;2022-11-18T15:16:12;10.73;;;7.80;;
61413;SDS011;47279;52.426;10.488;2022-11-18T15:18:39;6.97;;;5.93;;
61413;SDS011;47279;52.426;10.488;2022-11-18T15:21:05;7.15;;;6.13;;
61413;SDS011;47279;52.426;10.488;2022-11-18T15:23:31;7.03;;;6.03;;
61413;SDS011;47279;52.426;10.488;2022-11-18T15:25:57;7.50;;;6.25;;
61413;SDS011;47279;52.426;10.488;2022-11-18T15:28:23;7.35;;;6.55;;
61413;SDS011;47279;52.426;10.488;2022-11-18T15:30:49;7.60;;;6.05;;
61413;SDS011;47279;52.426;10.488;2022-11-18T15:33:15;6.35;;;5.50;;
61413;SDS011;47279;52.426;10.488;2022-11-18T15:35:41;7.18;;;6.45;;
61413;SDS011;47279;52.426;10.488;2022-11-18T15:38:09;7.57;;;6.65;;
61413;SDS011;47279;52.426;10.488;2022-11-18T15:40:36;6.82;;;6.13;;
61413;SDS011;47279;52.426;10.488;2022-11-18T15:43:02;7.00;;;6.30;;
61413;SDS011;47279;52.426;10.488;2022-11-18T15:45:28;8.30;;;6.20;;
61413;SDS011;47279;52.426;10.488;2022-11-18T15:47:54;7.65;;;6.20;;
61413;SDS011;47279;52.426;10.488;2022-11-18T15:50:20;6.88;;;5.85;;
61413;SDS011;47279;52.426;10.488;2022-11-18T15:52:46;7.95;;;6.68;;
61413;SDS011;47279;52.426;10.488;2022-11-18T15:55:12;6.35;;;5.75;;
61413;SDS011;47279;52.426;10.488;2022-11-18T15:57:39;7.63;;;6.88;;
61413;SDS011;47279;52.426;10.488;2022-11-18T16:00:05;6.95;;;6.25;;
61413;SDS011;47279;52.426;10.488;2022-11-18T16:02:33;8.93;;;7.35;;
61413;SDS011;47279;52.426;10.488;2022-11-18T16:04:59;9.05;;;6.13;;
61413;SDS011;47279;52.426;10.488;2022-11-18T16:07:25;7.45;;;6.57;;
61413;SDS011;47279;52.426;10.488;2022-11-18T16:09:51;7.00;;;6.20;;
61413;SDS011;47279;52.426;10.488;2022-11-18T16:12:35;7.97;;;6.72;;
61413;SDS011;47279;52.426;10.488;2022-11-18T16:15:10;7.90;;;6.53;;
61413;SDS011;47279;52.426;10.488;2022-11-18T16:17:55;7.70;;;6.13;;
61413;SDS011;47279;52.426;10.488;2022-11-18T16:20:21;7.75;;;6.50;;
61413;SDS011;47279;52.426;10.488;2022-11-18T16:22:47;8.75;;;6.30;;